createdAt,value
2018-09-02T00:01:41.205Z,4.00
2018-09-02T00:04:09.847Z,3.80
2018-09-02T00:06:38.391Z,3.90
2018-09-02T00:09:07.064Z,3.20
2018-09-02T00:11:35.657Z,3.27
2018-09-02T00:14:04.332Z,3.50
2018-09-02T00:16:32.899Z,4.00
2018-09-02T00:19:01.455Z,3.53
2018-09-02T00:21:30.008Z,3.73
2018-09-02T00:23:58.591Z,3.67
2018-09-02T00:26:27.194Z,3.67
2018-09-02T00:28:55.724Z,3.70
2018-09-02T00:31:24.276Z,4.07
2018-09-02T00:33:52.879Z,3.60
2018-09-02T00:36:21.395Z,4.27
2018-09-02T00:38:49.963Z,3.60
2018-09-02T00:41:18.591Z,3.77
2018-09-02T00:43:47.228Z,4.00
2018-09-02T00:46:15.772Z,3.60
2018-09-02T00:48:44.327Z,4.20
2018-09-02T00:51:12.948Z,3.60
2018-09-02T00:53:41.535Z,3.93
2018-09-02T00:56:10.142Z,3.67
2018-09-02T00:58:38.723Z,3.77
2018-09-02T01:01:07.468Z,3.63
2018-09-02T01:03:36.668Z,3.70
2018-09-02T01:06:05.288Z,4.10
2018-09-02T01:08:33.801Z,4.03
2018-09-02T01:11:02.314Z,3.97
2018-09-02T01:13:30.838Z,4.00
2018-09-02T01:15:59.413Z,4.37
2018-09-02T01:18:27.987Z,3.70
2018-09-02T01:20:56.488Z,3.50
2018-09-02T01:23:25.003Z,3.37
2018-09-02T01:25:54.083Z,3.70
2018-09-02T01:28:22.577Z,3.80
2018-09-02T01:30:51.047Z,3.90
2018-09-02T01:33:19.885Z,4.20
2018-09-02T01:35:48.325Z,4.17
2018-09-02T01:38:16.827Z,4.30
2018-09-02T01:40:45.268Z,4.47
2018-09-02T01:43:13.788Z,4.50
2018-09-02T01:45:42.269Z,4.33
2018-09-02T01:48:10.872Z,3.80
2018-09-02T01:50:39.376Z,4.43
2018-09-02T01:53:07.902Z,4.37
2018-09-02T01:55:36.394Z,4.00
2018-09-02T01:58:04.939Z,4.33
2018-09-02T02:00:33.398Z,4.40
2018-09-02T02:03:01.876Z,4.50
2018-09-02T02:05:30.378Z,4.30
2018-09-02T02:07:58.867Z,4.30
2018-09-02T02:10:27.366Z,4.43
2018-09-02T02:12:55.863Z,4.90
2018-09-02T02:15:24.400Z,4.43
2018-09-02T02:17:52.906Z,4.40
2018-09-02T02:20:21.429Z,4.67
2018-09-02T02:22:49.945Z,4.40
2018-09-02T02:25:18.441Z,4.60
2018-09-02T02:27:46.902Z,4.63
2018-09-02T02:30:15.466Z,4.57
2018-09-02T02:32:43.997Z,4.63
2018-09-02T02:35:12.665Z,4.43
2018-09-02T02:37:41.343Z,4.33
2018-09-02T02:40:09.918Z,4.17
2018-09-02T02:42:38.402Z,4.37
2018-09-02T02:45:06.932Z,5.17
2018-09-02T02:47:36.484Z,4.50
2018-09-02T02:50:05.223Z,4.97
2018-09-02T02:52:39.013Z,4.27
2018-09-02T02:55:08.026Z,4.63
2018-09-02T02:57:36.559Z,4.70
2018-09-02T03:00:05.273Z,4.90
2018-09-02T03:02:33.796Z,4.97
2018-09-02T03:05:02.455Z,4.53
2018-09-02T03:07:30.905Z,5.10
2018-09-02T03:09:59.458Z,5.00
2018-09-02T03:12:27.985Z,5.27
2018-09-02T03:14:56.534Z,4.70
2018-09-02T03:17:25.016Z,5.17
2018-09-02T03:19:53.522Z,5.57
2018-09-02T03:22:22.074Z,4.80
2018-09-02T03:24:50.601Z,4.90
2018-09-02T03:27:19.141Z,4.97
2018-09-02T03:29:47.670Z,4.40
2018-09-02T03:32:16.186Z,4.83
2018-09-02T03:34:44.985Z,4.70
2018-09-02T03:37:13.535Z,4.70
2018-09-02T03:39:42.043Z,5.07
2018-09-02T03:42:10.719Z,5.00
2018-09-02T03:44:39.267Z,4.93
2018-09-02T03:47:08.187Z,5.20
2018-09-02T03:49:36.760Z,4.57
2018-09-02T03:52:05.320Z,4.63
2018-09-02T03:54:33.835Z,4.80
2018-09-02T03:57:02.319Z,4.80
2018-09-02T03:59:32.023Z,4.57
2018-09-02T04:02:00.520Z,5.20
2018-09-02T04:04:29.703Z,4.80
2018-09-02T04:06:58.228Z,5.00
2018-09-02T04:09:26.769Z,4.50
2018-09-02T04:11:55.302Z,4.97
2018-09-02T04:14:23.837Z,4.33
2018-09-02T04:16:52.350Z,4.60
2018-09-02T04:19:20.840Z,4.80
2018-09-02T04:21:49.362Z,5.00
2018-09-02T04:24:17.923Z,4.90
2018-09-02T04:26:46.442Z,4.23
2018-09-02T04:29:15.028Z,4.90
2018-09-02T04:31:43.534Z,4.30
2018-09-02T04:34:12.092Z,4.90
2018-09-02T04:36:40.623Z,4.70
2018-09-02T04:39:09.840Z,4.50
2018-09-02T04:41:38.839Z,4.63
2018-09-02T04:44:07.417Z,4.50
2018-09-02T04:46:36.005Z,5.37
2018-09-02T04:49:04.634Z,5.17
2018-09-02T04:51:33.139Z,5.63
2018-09-02T04:54:01.760Z,5.53
2018-09-02T04:56:30.286Z,5.60
2018-09-02T04:58:58.836Z,5.23
2018-09-02T05:01:27.382Z,5.57
2018-09-02T05:03:55.945Z,5.30
2018-09-02T05:06:24.491Z,4.83
2018-09-02T05:08:53.000Z,5.50
2018-09-02T05:11:21.543Z,5.63
2018-09-02T05:13:50.049Z,5.20
2018-09-02T05:16:18.582Z,4.70
2018-09-02T05:18:47.091Z,5.20
2018-09-02T05:21:15.656Z,5.30
2018-09-02T05:23:44.175Z,5.63
2018-09-02T05:26:12.688Z,5.47
2018-09-02T05:28:41.211Z,5.00
2018-09-02T05:31:09.790Z,5.20
2018-09-02T05:33:38.407Z,5.50
2018-09-02T05:36:06.977Z,5.60
2018-09-02T05:38:35.461Z,6.53
2018-09-02T05:41:04.135Z,5.37
2018-09-02T05:43:32.716Z,5.80
2018-09-02T05:46:01.258Z,5.33
2018-09-02T05:48:29.847Z,5.63
2018-09-02T05:50:58.417Z,6.07
2018-09-02T05:53:27.101Z,5.83
2018-09-02T05:55:55.671Z,5.67
2018-09-02T05:58:24.232Z,6.27
2018-09-02T06:00:52.755Z,6.17
2018-09-02T06:03:21.880Z,6.20
2018-09-02T06:05:50.463Z,6.73
2018-09-02T06:08:19.087Z,7.10
2018-09-02T06:10:47.600Z,6.73
2018-09-02T06:13:16.207Z,6.27
2018-09-02T06:15:44.780Z,6.70
2018-09-02T06:18:15.249Z,6.77
2018-09-02T06:20:43.795Z,6.67
2018-09-02T06:23:12.422Z,7.40
2018-09-02T06:25:41.006Z,8.10
2018-09-02T06:28:10.603Z,8.80
2018-09-02T06:30:39.133Z,8.53
2018-09-02T06:33:08.326Z,8.17
2018-09-02T06:35:36.881Z,7.57
2018-09-02T06:38:05.421Z,9.90
2018-09-02T06:40:33.933Z,11.07
2018-09-02T06:43:02.831Z,10.80
2018-09-02T06:45:32.112Z,8.03
2018-09-02T06:48:00.934Z,9.90
2018-09-02T06:50:29.466Z,9.67
2018-09-02T06:52:58.037Z,8.97
2018-09-02T06:55:27.299Z,9.20
2018-09-02T06:57:57.728Z,8.97
2018-09-02T07:00:27.533Z,8.77
2018-09-02T07:02:56.073Z,8.97
2018-09-02T07:05:24.654Z,9.43
2018-09-02T07:07:53.177Z,8.47
2018-09-02T07:10:21.716Z,8.93
2018-09-02T07:12:50.273Z,8.87
2018-09-02T07:15:18.793Z,8.80
2018-09-02T07:17:47.299Z,8.30
2018-09-02T07:20:15.916Z,8.00
2018-09-02T07:22:44.389Z,7.83
2018-09-02T07:25:12.862Z,8.63
2018-09-02T07:27:41.407Z,7.13
2018-09-02T07:30:10.027Z,8.00
2018-09-02T07:32:38.689Z,8.40
2018-09-02T07:35:07.267Z,7.97
2018-09-02T07:37:35.749Z,8.53
2018-09-02T07:40:04.271Z,7.97
2018-09-02T07:42:32.791Z,8.97
2018-09-02T07:45:01.319Z,8.80
2018-09-02T07:47:29.890Z,7.73
2018-09-02T07:49:58.459Z,8.47
2018-09-02T07:52:26.984Z,8.67
2018-09-02T07:54:55.619Z,8.60
2018-09-02T07:57:24.203Z,8.90
2018-09-02T07:59:52.714Z,7.63
2018-09-02T08:02:21.299Z,7.30
2018-09-02T08:04:49.821Z,7.17
2018-09-02T08:07:18.382Z,7.67
2018-09-02T08:09:46.898Z,7.73
2018-09-02T08:12:15.476Z,7.73
2018-09-02T08:14:44.642Z,6.50
2018-09-02T08:17:13.872Z,5.97
2018-09-02T08:19:43.689Z,5.90
2018-09-02T08:22:12.215Z,5.83
2018-09-02T08:24:41.266Z,5.97
2018-09-02T08:27:09.976Z,5.23
2018-09-02T08:29:38.505Z,4.50
2018-09-02T08:32:07.062Z,4.60
2018-09-02T08:34:35.627Z,4.47
2018-09-02T08:37:04.187Z,4.40
2018-09-02T08:39:32.720Z,3.77
2018-09-02T08:42:01.300Z,4.23
2018-09-02T08:44:29.821Z,4.33
2018-09-02T08:46:58.343Z,3.60
2018-09-02T08:49:26.850Z,4.47
2018-09-02T08:51:55.362Z,3.87
2018-09-02T08:54:24.040Z,4.53
2018-09-02T08:56:54.184Z,4.17
2018-09-02T08:59:29.383Z,3.63
2018-09-02T09:01:58.051Z,3.80
2018-09-02T09:04:27.270Z,4.13
2018-09-02T09:06:55.809Z,4.77
2018-09-02T09:09:24.324Z,4.07
2018-09-02T09:11:53.765Z,3.97
2018-09-02T09:14:23.351Z,3.50
2018-09-02T09:16:52.236Z,3.37
2018-09-02T09:19:21.554Z,3.57
2018-09-02T09:21:50.051Z,3.50
2018-09-02T09:24:20.404Z,3.57
2018-09-02T09:26:49.387Z,3.00
2018-09-02T09:29:17.874Z,3.07
2018-09-02T09:31:46.386Z,3.10
2018-09-02T09:34:15.050Z,3.67
2018-09-02T09:36:43.787Z,2.70
2018-09-02T09:39:18.302Z,3.10
2018-09-02T09:41:57.310Z,3.10
2018-09-02T09:44:26.051Z,2.70
2018-09-02T09:46:54.602Z,2.70
2018-09-02T09:49:23.141Z,2.77
2018-09-02T09:51:51.703Z,3.00
2018-09-02T09:54:20.287Z,3.20
2018-09-02T09:56:48.812Z,3.17
2018-09-02T09:59:17.356Z,3.10
2018-09-02T10:01:45.896Z,2.90
2018-09-02T10:04:14.369Z,3.33
2018-09-02T10:06:44.602Z,3.40
2018-09-02T10:09:14.859Z,3.27
2018-09-02T10:11:45.156Z,2.97
2018-09-02T10:14:13.594Z,3.07
2018-09-02T10:16:42.093Z,2.97
2018-09-02T10:19:11.105Z,3.40
2018-09-02T10:21:39.631Z,3.20
2018-09-02T10:24:08.145Z,3.00
2018-09-02T10:26:36.650Z,3.07
2018-09-02T10:29:05.224Z,3.10
2018-09-02T10:31:33.755Z,3.33
2018-09-02T10:34:02.382Z,7.00
2018-09-02T10:36:30.965Z,2.80
2018-09-02T10:38:59.738Z,6.97
2018-09-02T10:41:28.708Z,5.23
2018-09-02T10:43:57.156Z,3.53
2018-09-02T10:46:26.006Z,3.40
2018-09-02T10:48:54.573Z,3.20
2018-09-02T10:51:23.107Z,3.00
2018-09-02T10:53:51.690Z,2.70
2018-09-02T10:56:20.376Z,3.20
2018-09-02T10:58:50.110Z,3.13
2018-09-02T11:01:18.775Z,3.00
2018-09-02T11:03:47.335Z,3.43
2018-09-02T11:06:16.113Z,3.00
2018-09-02T11:08:44.743Z,2.63
2018-09-02T11:11:13.663Z,2.87
2018-09-02T11:13:42.298Z,3.13
2018-09-02T11:16:10.700Z,3.00
2018-09-02T11:18:39.169Z,3.07
2018-09-02T11:21:07.793Z,2.93
2018-09-02T11:23:36.458Z,2.93
2018-09-02T11:26:05.021Z,3.60
2018-09-02T11:28:33.660Z,2.97
2018-09-02T11:31:02.210Z,2.97
2018-09-02T11:33:31.143Z,3.10
2018-09-02T11:35:59.747Z,3.20
2018-09-02T11:38:28.351Z,3.40
2018-09-02T11:40:57.010Z,2.93
2018-09-02T11:43:25.698Z,2.73
2018-09-02T11:45:54.225Z,3.03
2018-09-02T11:48:22.750Z,2.97
2018-09-02T11:50:51.397Z,3.10
2018-09-02T11:53:19.894Z,2.80
2018-09-02T11:55:48.400Z,3.23
2018-09-02T11:58:16.940Z,3.27
2018-09-02T12:00:45.851Z,3.00
2018-09-02T12:03:14.414Z,2.87
2018-09-02T12:05:42.965Z,2.87
2018-09-02T12:08:11.710Z,3.10
2018-09-02T12:10:40.230Z,3.20
2018-09-02T12:13:08.725Z,3.13
2018-09-02T12:15:37.409Z,3.10
2018-09-02T12:18:05.927Z,2.90
2018-09-02T12:20:34.464Z,2.80
2018-09-02T12:23:02.987Z,2.80
2018-09-02T12:25:31.438Z,3.00
2018-09-02T12:28:00.126Z,3.03
2018-09-02T12:30:28.646Z,2.60
2018-09-02T12:32:57.384Z,2.87
2018-09-02T12:35:26.059Z,2.87
2018-09-02T12:37:54.567Z,2.77
2018-09-02T12:40:23.069Z,3.00
2018-09-02T12:42:51.793Z,3.50
2018-09-02T12:45:20.467Z,2.80
2018-09-02T12:47:49.153Z,3.00
2018-09-02T12:50:17.808Z,2.70
2018-09-02T12:52:46.369Z,2.90
2018-09-02T12:55:15.066Z,2.90
2018-09-02T12:57:43.558Z,2.73
2018-09-02T13:00:13.389Z,2.90
2018-09-02T13:02:41.875Z,2.80
2018-09-02T13:05:10.346Z,2.73
2018-09-02T13:07:38.865Z,2.57
2018-09-02T13:10:07.408Z,2.50
2018-09-02T13:12:35.896Z,2.90
2018-09-02T13:15:04.655Z,2.90
2018-09-02T13:17:33.151Z,2.60
2018-09-02T13:20:01.739Z,2.47
2018-09-02T13:22:30.308Z,2.77
2018-09-02T13:24:58.835Z,2.77
2018-09-02T13:27:27.283Z,3.00
2018-09-02T13:29:55.752Z,2.93
2018-09-02T13:32:24.273Z,2.60
2018-09-02T13:34:52.802Z,2.53
2018-09-02T13:37:21.342Z,3.47
2018-09-02T13:39:49.862Z,2.47
2018-09-02T13:42:18.458Z,2.60
2018-09-02T13:44:47.124Z,2.83
2018-09-02T13:47:15.763Z,2.60
2018-09-02T13:49:44.390Z,2.93
2018-09-02T13:52:12.852Z,2.87
2018-09-02T13:54:41.331Z,2.43
2018-09-02T13:57:09.797Z,3.10
2018-09-02T13:59:38.651Z,2.93
2018-09-02T14:02:07.391Z,3.30
2018-09-02T14:04:35.997Z,2.80
2018-09-02T14:07:04.616Z,2.50
2018-09-02T14:09:33.179Z,2.80
2018-09-02T14:12:01.886Z,3.43
2018-09-02T14:14:30.474Z,2.57
2018-09-02T14:16:59.217Z,2.63
2018-09-02T14:19:27.813Z,2.70
2018-09-02T14:21:56.357Z,2.60
2018-09-02T14:24:24.831Z,2.50
2018-09-02T14:26:53.501Z,2.63
2018-09-02T14:29:22.199Z,2.30
2018-09-02T14:31:50.735Z,2.60
2018-09-02T14:34:19.221Z,2.70
2018-09-02T14:36:48.131Z,2.90
2018-09-02T14:39:16.623Z,2.40
2018-09-02T14:41:45.638Z,2.67
2018-09-02T14:44:14.131Z,2.60
2018-09-02T14:46:42.654Z,2.50
2018-09-02T14:49:11.125Z,2.90
2018-09-02T14:51:39.604Z,2.83
2018-09-02T14:54:08.232Z,2.83
2018-09-02T14:56:36.820Z,3.00
2018-09-02T14:59:05.374Z,2.73
2018-09-02T15:01:34.396Z,2.80
2018-09-02T15:04:03.765Z,2.47
2018-09-02T15:06:35.666Z,2.57
2018-09-02T15:09:05.500Z,2.67
2018-09-02T15:11:34.165Z,2.30
2018-09-02T15:14:03.601Z,2.50
2018-09-02T15:16:32.519Z,2.70
2018-09-02T15:19:01.255Z,2.70
2018-09-02T15:21:29.887Z,2.43
2018-09-02T15:23:58.401Z,2.87
2018-09-02T15:26:26.989Z,2.60
2018-09-02T15:28:56.372Z,2.67
2018-09-02T15:31:24.950Z,2.70
2018-09-02T15:33:53.658Z,2.30
2018-09-02T15:36:22.119Z,2.53
2018-09-02T15:38:50.644Z,2.50
2018-09-02T15:41:19.132Z,2.47
2018-09-02T15:43:47.764Z,2.30
2018-09-02T15:46:16.701Z,2.57
2018-09-02T15:48:45.304Z,2.67
2018-09-02T15:51:13.892Z,2.60
2018-09-02T15:53:42.851Z,2.63
2018-09-02T15:56:11.523Z,2.43
2018-09-02T15:58:40.308Z,2.77
2018-09-02T16:01:09.009Z,2.90
2018-09-02T16:03:37.666Z,3.03
2018-09-02T16:06:06.419Z,3.00
2018-09-02T16:08:35.594Z,2.70
2018-09-02T16:11:04.730Z,2.47
2018-09-02T16:13:33.281Z,3.03
2018-09-02T16:16:01.948Z,2.70
2018-09-02T16:18:30.511Z,2.53
2018-09-02T16:20:59.080Z,3.00
2018-09-02T16:23:27.615Z,2.83
2018-09-02T16:25:56.158Z,2.70
2018-09-02T16:28:24.753Z,2.50
2018-09-02T16:30:54.472Z,3.00
2018-09-02T16:33:23.049Z,2.33
2018-09-02T16:35:51.695Z,2.83
2018-09-02T16:38:21.133Z,2.90
2018-09-02T16:40:49.646Z,2.60
2018-09-02T16:43:18.475Z,2.80
2018-09-02T16:45:46.986Z,2.67
2018-09-02T16:48:15.564Z,2.97
2018-09-02T16:50:44.060Z,2.80
2018-09-02T16:53:12.566Z,2.90
2018-09-02T16:55:41.075Z,3.03
2018-09-02T16:58:09.615Z,3.13
2018-09-02T17:00:38.122Z,2.97
2018-09-02T17:03:06.720Z,3.10
2018-09-02T17:05:35.226Z,2.90
2018-09-02T17:08:04.620Z,2.97
2018-09-02T17:10:33.141Z,3.30
2018-09-02T17:13:01.705Z,2.67
2018-09-02T17:15:30.334Z,2.87
2018-09-02T17:17:58.908Z,2.87
2018-09-02T17:20:31.275Z,2.90
2018-09-02T17:23:05.092Z,2.90
2018-09-02T17:25:33.632Z,2.73
2018-09-02T17:28:02.186Z,2.77
2018-09-02T17:30:30.875Z,2.70
2018-09-02T17:32:59.448Z,2.50
2018-09-02T17:35:29.064Z,2.63
2018-09-02T17:37:57.783Z,2.90
2018-09-02T17:40:26.630Z,2.83
2018-09-02T17:42:55.348Z,2.80
2018-09-02T17:45:24.425Z,2.70
2018-09-02T17:47:53.324Z,2.70
2018-09-02T17:50:22.522Z,2.63
2018-09-02T17:52:50.986Z,2.60
2018-09-02T17:55:19.547Z,3.00
2018-09-02T17:57:48.074Z,2.80
2018-09-02T18:00:22.660Z,2.67
2018-09-02T18:02:51.256Z,2.67
2018-09-02T18:05:19.861Z,2.67
2018-09-02T18:07:48.368Z,2.70
2018-09-02T18:10:16.893Z,2.87
2018-09-02T18:12:45.451Z,2.90
2018-09-02T18:15:13.977Z,2.60
2018-09-02T18:17:42.531Z,2.87
2018-09-02T18:20:11.095Z,2.93
2018-09-02T18:22:39.593Z,2.70
2018-09-02T18:25:08.231Z,2.80
2018-09-02T18:27:38.703Z,2.90
2018-09-02T18:30:07.618Z,3.20
2018-09-02T18:32:36.176Z,2.90
2018-09-02T18:35:04.841Z,2.90
2018-09-02T18:37:33.391Z,2.90
2018-09-02T18:40:01.935Z,3.40
2018-09-02T18:42:30.532Z,3.10
2018-09-02T18:44:59.041Z,3.57
2018-09-02T18:47:27.669Z,3.20
2018-09-02T18:50:02.960Z,3.23
2018-09-02T18:52:31.493Z,3.83
2018-09-02T18:54:59.992Z,3.57
2018-09-02T18:57:28.532Z,3.37
2018-09-02T18:59:57.149Z,4.03
2018-09-02T19:02:25.701Z,3.60
2018-09-02T19:04:54.209Z,3.90
2018-09-02T19:07:22.949Z,3.30
2018-09-02T19:09:51.539Z,3.87
2018-09-02T19:12:20.113Z,3.60
2018-09-02T19:14:48.679Z,3.97
2018-09-02T19:17:17.190Z,3.73
2018-09-02T19:19:45.682Z,4.43
2018-09-02T19:22:14.249Z,3.57
2018-09-02T19:24:42.880Z,4.67
2018-09-02T19:27:11.423Z,4.20
2018-09-02T19:29:40.049Z,4.10
2018-09-02T19:32:08.591Z,4.17
2018-09-02T19:34:38.270Z,4.90
2018-09-02T19:37:06.853Z,4.50
2018-09-02T19:39:35.345Z,4.77
2018-09-02T19:42:05.548Z,4.53
2018-09-02T19:44:34.276Z,4.53
2018-09-02T19:47:02.827Z,4.83
2018-09-02T19:49:31.430Z,4.20
2018-09-02T19:51:59.876Z,4.30
2018-09-02T19:54:31.114Z,4.43
2018-09-02T19:56:59.589Z,4.20
2018-09-02T19:59:28.114Z,4.30
2018-09-02T20:01:56.597Z,4.10
2018-09-02T20:04:25.147Z,4.63
2018-09-02T20:06:54.606Z,4.47
2018-09-02T20:09:23.105Z,4.40
2018-09-02T20:11:51.680Z,4.30
2018-09-02T20:14:20.293Z,4.23
2018-09-02T20:16:48.856Z,4.60
2018-09-02T20:19:17.523Z,4.70
2018-09-02T20:21:46.320Z,4.30
2018-09-02T20:24:14.878Z,3.63
2018-09-02T20:26:43.499Z,4.20
2018-09-02T20:29:12.319Z,4.80
2018-09-02T20:31:40.826Z,4.50
2018-09-02T20:34:09.423Z,4.63
2018-09-02T20:36:38.039Z,4.60
2018-09-02T20:39:08.384Z,4.20
2018-09-02T20:41:37.214Z,4.30
2018-09-02T20:44:06.390Z,4.50
2018-09-02T20:46:34.930Z,4.43
2018-09-02T20:49:03.477Z,4.30
2018-09-02T20:51:32.012Z,4.07
2018-09-02T20:54:00.495Z,3.73
2018-09-02T20:56:29.010Z,4.90
2018-09-02T20:58:57.602Z,4.00
2018-09-02T21:01:26.303Z,4.07
2018-09-02T21:03:54.867Z,4.17
2018-09-02T21:06:23.447Z,4.20
2018-09-02T21:08:52.065Z,4.17
2018-09-02T21:11:20.730Z,3.80
2018-09-02T21:13:49.281Z,3.70
2018-09-02T21:16:17.874Z,3.83
2018-09-02T21:18:46.476Z,3.93
2018-09-02T21:21:15.105Z,3.70
2018-09-02T21:23:43.664Z,3.40
2018-09-02T21:26:12.266Z,3.67
2018-09-02T21:28:40.803Z,3.80
2018-09-02T21:31:09.448Z,3.60
2018-09-02T21:33:38.158Z,3.57
2018-09-02T21:36:06.799Z,3.23
2018-09-02T21:38:35.305Z,3.77
2018-09-02T21:41:03.843Z,3.60
2018-09-02T21:43:32.473Z,3.27
2018-09-02T21:46:01.006Z,3.57
2018-09-02T21:48:29.501Z,3.50
2018-09-02T21:50:58.076Z,2.90
2018-09-02T21:53:26.668Z,3.57
2018-09-02T21:55:55.204Z,3.13
2018-09-02T21:58:23.760Z,3.33
2018-09-02T22:00:52.302Z,3.07
2018-09-02T22:03:20.935Z,2.90
2018-09-02T22:05:51.069Z,3.40
2018-09-02T22:08:19.663Z,3.30
2018-09-02T22:10:48.184Z,3.40
2018-09-02T22:13:16.902Z,3.30
2018-09-02T22:15:45.467Z,3.07
2018-09-02T22:18:14.042Z,3.30
2018-09-02T22:20:42.607Z,3.53
2018-09-02T22:23:11.071Z,3.10
2018-09-02T22:25:39.684Z,3.63
2018-09-02T22:28:08.157Z,3.40
2018-09-02T22:30:36.684Z,3.17
2018-09-02T22:33:05.316Z,3.23
2018-09-02T22:35:33.990Z,3.40
2018-09-02T22:38:02.530Z,3.40
2018-09-02T22:40:31.067Z,3.20
2018-09-02T22:42:59.603Z,3.50
2018-09-02T22:45:28.155Z,3.83
2018-09-02T22:47:56.673Z,3.87
2018-09-02T22:50:25.243Z,3.47
2018-09-02T22:52:53.700Z,3.60
2018-09-02T22:55:22.203Z,3.20
2018-09-02T22:57:50.732Z,3.50
2018-09-02T23:00:19.222Z,3.60
2018-09-02T23:02:47.699Z,3.33
2018-09-02T23:05:16.210Z,3.80
2018-09-02T23:07:44.726Z,3.83
2018-09-02T23:10:13.246Z,3.97
2018-09-02T23:12:41.746Z,3.40
2018-09-02T23:15:10.293Z,3.57
2018-09-02T23:17:38.868Z,3.50
2018-09-02T23:20:07.492Z,3.73
2018-09-02T23:22:35.994Z,3.43
2018-09-02T23:25:04.557Z,3.73
2018-09-02T23:27:33.072Z,4.13
2018-09-02T23:30:01.589Z,3.80
2018-09-02T23:32:30.386Z,4.30
2018-09-02T23:34:58.926Z,4.17
2018-09-02T23:37:27.936Z,4.27
2018-09-02T23:39:56.427Z,4.03
2018-09-02T23:42:25.167Z,4.20
2018-09-02T23:44:53.818Z,4.50
2018-09-02T23:47:22.427Z,4.43
2018-09-02T23:49:50.952Z,4.10
2018-09-02T23:52:20.429Z,4.70
2018-09-02T23:54:49.034Z,4.30
2018-09-02T23:57:18.010Z,4.40
2018-09-02T23:59:46.693Z,4.47
